createdAt,value
2022-12-11T00:02:11.736Z,63.17
2022-12-11T00:04:41.348Z,62.88
2022-12-11T00:07:10.933Z,62.64
2022-12-11T00:09:40.819Z,63.16
2022-12-11T00:12:10.737Z,63.26
2022-12-11T00:14:40.275Z,63.77
2022-12-11T00:17:12.857Z,63.57
2022-12-11T00:19:42.552Z,63.88
2022-12-11T00:22:12.256Z,63.69
2022-12-11T00:24:41.842Z,63.29
2022-12-11T00:27:11.732Z,63.21
2022-12-11T00:29:41.356Z,63.31
2022-12-11T00:32:13.604Z,63.10
2022-12-11T00:34:43.257Z,63.38
2022-12-11T00:37:13.109Z,63.49
2022-12-11T00:39:42.729Z,63.45
2022-12-11T00:42:12.325Z,64.03
2022-12-11T00:44:41.913Z,63.67
2022-12-11T00:47:14.164Z,63.35
2022-12-11T00:49:49.416Z,63.12
2022-12-11T00:52:20.125Z,63.08
2022-12-11T00:54:49.714Z,63.12
2022-12-11T00:57:19.320Z,63.10
2022-12-11T00:59:48.952Z,63.12
2022-12-11T01:02:21.117Z,63.35
2022-12-11T01:04:50.747Z,63.51
2022-12-11T01:07:20.312Z,63.55
2022-12-11T01:10:02.403Z,63.69
2022-12-11T01:12:32.028Z,63.36
2022-12-11T01:15:01.652Z,63.86
2022-12-11T01:17:33.865Z,64.17
2022-12-11T01:20:04.304Z,64.01
2022-12-11T01:22:33.967Z,64.41
2022-12-11T01:25:03.777Z,64.29
2022-12-11T01:27:33.362Z,64.25
2022-12-11T01:30:03.184Z,63.97
2022-12-11T01:32:35.477Z,63.65
2022-12-11T01:35:05.986Z,63.90
2022-12-11T01:37:35.657Z,64.09
2022-12-11T01:40:05.932Z,63.94
2022-12-11T01:42:35.597Z,63.72
2022-12-11T01:45:33.343Z,64.10
2022-12-11T01:48:08.949Z,63.98
2022-12-11T01:50:41.473Z,64.07
2022-12-11T01:53:12.837Z,64.00
2022-12-11T01:55:42.442Z,64.04
2022-12-11T01:58:12.052Z,63.98
2022-12-11T02:00:41.623Z,63.94
2022-12-11T02:03:13.800Z,63.90
2022-12-11T02:05:43.384Z,64.01
2022-12-11T02:08:13.003Z,63.58
2022-12-11T02:10:50.436Z,63.29
2022-12-11T02:13:22.189Z,63.55
2022-12-11T02:15:53.345Z,63.31
2022-12-11T02:18:28.521Z,63.80
2022-12-11T02:21:01.354Z,64.03
2022-12-11T02:23:42.062Z,63.84
2022-12-11T02:26:25.191Z,63.72
2022-12-11T02:28:58.375Z,64.05
2022-12-11T02:31:30.753Z,63.95
2022-12-11T02:34:02.420Z,63.85
2022-12-11T02:36:33.142Z,63.99
2022-12-11T02:39:02.758Z,63.89
2022-12-11T02:41:32.489Z,63.79
2022-12-11T02:44:05.257Z,63.91
2022-12-11T02:46:35.062Z,63.69
2022-12-11T02:49:06.525Z,63.72
2022-12-11T02:51:37.463Z,63.50
2022-12-11T02:54:07.183Z,63.68
2022-12-11T02:56:39.466Z,63.77
2022-12-11T02:59:13.042Z,63.56
2022-12-11T03:01:42.689Z,63.77
2022-12-11T03:04:12.347Z,63.44
2022-12-11T03:06:44.494Z,63.35
2022-12-11T03:09:14.123Z,63.83
2022-12-11T03:11:43.757Z,63.46
2022-12-11T03:14:16.748Z,63.32
2022-12-11T03:16:50.480Z,63.18
2022-12-11T03:19:23.174Z,63.34
2022-12-11T03:21:55.244Z,63.25
2022-12-11T03:24:26.699Z,63.33
2022-12-11T03:27:00.956Z,63.12
2022-12-11T03:29:35.412Z,63.36
2022-12-11T03:32:07.866Z,63.30
2022-12-11T03:34:40.850Z,63.18
2022-12-11T03:37:10.531Z,63.24
2022-12-11T03:39:41.289Z,63.58
2022-12-11T03:42:11.514Z,63.56
2022-12-11T03:44:43.688Z,63.61
2022-12-11T03:47:13.318Z,63.57
2022-12-11T03:49:44.709Z,63.86
2022-12-11T03:52:15.217Z,64.07
2022-12-11T03:54:45.464Z,63.74
2022-12-11T03:57:16.201Z,63.99
2022-12-11T03:59:48.428Z,63.89
2022-12-11T04:02:18.275Z,64.25
2022-12-11T04:04:47.853Z,64.22
2022-12-11T04:07:17.482Z,64.21
2022-12-11T04:09:47.047Z,63.85
2022-12-11T04:12:16.633Z,63.80
2022-12-11T04:15:01.379Z,64.18
2022-12-11T04:17:46.365Z,64.34
2022-12-11T04:20:28.435Z,64.84
2022-12-11T04:23:10.534Z,64.93
2022-12-11T04:25:40.206Z,64.31
2022-12-11T04:28:09.853Z,64.26
2022-12-11T04:30:42.031Z,64.39
2022-12-11T04:33:11.638Z,64.32
2022-12-11T04:35:41.248Z,64.65
2022-12-11T04:38:10.856Z,64.78
2022-12-11T04:40:40.520Z,64.89
2022-12-11T04:43:10.197Z,64.55
2022-12-11T04:45:42.415Z,64.49
2022-12-11T04:48:12.043Z,64.36
2022-12-11T04:50:41.699Z,64.57
2022-12-11T04:53:11.305Z,64.93
2022-12-11T04:55:42.417Z,64.90
2022-12-11T04:58:12.087Z,64.89
2022-12-11T05:00:44.309Z,64.87
2022-12-11T05:03:13.998Z,65.06
2022-12-11T05:05:43.598Z,64.58
2022-12-11T05:08:13.272Z,64.78
2022-12-11T05:10:48.549Z,64.60
2022-12-11T05:13:19.624Z,64.39
2022-12-11T05:15:51.845Z,64.21
2022-12-11T05:18:21.502Z,64.52
2022-12-11T05:20:57.963Z,64.80
2022-12-11T05:23:27.600Z,64.90
2022-12-11T05:25:57.320Z,64.76
2022-12-11T05:28:27.509Z,65.18
2022-12-11T05:31:01.382Z,64.58
2022-12-11T05:33:31.224Z,64.48
2022-12-11T05:36:00.917Z,64.65
2022-12-11T05:38:30.508Z,64.87
2022-12-11T05:41:00.626Z,64.65
2022-12-11T05:43:30.688Z,64.70
2022-12-11T05:46:08.077Z,64.54
2022-12-11T05:48:37.677Z,64.42
2022-12-11T05:51:08.396Z,64.59
2022-12-11T05:53:38.419Z,64.80
2022-12-11T05:56:09.333Z,64.97
2022-12-11T05:58:39.017Z,64.48
2022-12-11T06:01:12.797Z,64.34
2022-12-11T06:03:42.381Z,64.82
2022-12-11T06:06:12.091Z,64.67
2022-12-11T06:08:41.719Z,64.71
2022-12-11T06:11:11.470Z,64.23
2022-12-11T06:13:41.049Z,64.49
2022-12-11T06:16:13.458Z,63.97
2022-12-11T06:18:44.004Z,63.91
2022-12-11T06:21:17.197Z,64.66
2022-12-11T06:23:47.079Z,64.22
2022-12-11T06:26:17.201Z,64.03
2022-12-11T06:28:46.848Z,63.84
2022-12-11T06:31:19.215Z,64.28
2022-12-11T06:33:48.957Z,64.51
2022-12-11T06:36:19.557Z,64.56
2022-12-11T06:38:49.415Z,64.45
2022-12-11T06:41:18.993Z,64.19
2022-12-11T06:43:48.591Z,63.94
2022-12-11T06:46:21.603Z,64.02
2022-12-11T06:48:51.468Z,64.11
2022-12-11T06:51:22.369Z,64.05
2022-12-11T06:53:53.809Z,64.28
2022-12-11T06:56:23.500Z,64.31
2022-12-11T06:58:53.204Z,64.42
2022-12-11T07:01:26.390Z,64.47
2022-12-11T07:03:56.207Z,64.34
2022-12-11T07:06:25.920Z,64.31
2022-12-11T07:08:55.739Z,64.69
2022-12-11T07:11:25.542Z,64.55
2022-12-11T07:13:55.101Z,65.09
2022-12-11T07:16:27.319Z,65.07
2022-12-11T07:18:56.925Z,64.98
2022-12-11T07:21:26.525Z,64.60
2022-12-11T07:23:56.105Z,64.70
2022-12-11T07:26:25.777Z,65.43
2022-12-11T07:28:56.091Z,65.26
2022-12-11T07:31:29.080Z,65.90
2022-12-11T07:33:58.797Z,67.40
2022-12-11T07:36:28.370Z,67.00
2022-12-11T07:38:58.234Z,66.00
2022-12-11T07:41:28.352Z,65.52
2022-12-11T07:43:58.048Z,65.10
2022-12-11T07:46:31.333Z,64.88
2022-12-11T07:49:00.924Z,64.69
2022-12-11T07:51:31.228Z,64.46
2022-12-11T07:54:02.042Z,64.22
2022-12-11T07:56:31.956Z,64.01
2022-12-11T07:59:02.021Z,64.00
2022-12-11T08:01:35.750Z,64.26
2022-12-11T08:04:05.501Z,65.39
2022-12-11T08:06:36.060Z,65.58
2022-12-11T08:09:06.926Z,65.07
2022-12-11T08:11:36.580Z,64.78
2022-12-11T08:14:06.742Z,64.42
2022-12-11T08:16:43.069Z,63.80
2022-12-11T08:19:13.424Z,63.84
2022-12-11T08:21:43.543Z,63.77
2022-12-11T08:24:14.702Z,63.70
2022-12-11T08:26:44.349Z,63.86
2022-12-11T08:29:13.948Z,64.19
2022-12-11T08:31:46.192Z,63.93
2022-12-11T08:34:15.788Z,64.08
2022-12-11T08:36:45.464Z,64.28
2022-12-11T08:39:15.080Z,64.27
2022-12-11T08:41:44.708Z,64.30
2022-12-11T08:44:16.932Z,64.22
2022-12-11T08:46:49.397Z,64.25
2022-12-11T08:49:18.952Z,63.99
2022-12-11T08:51:48.566Z,64.13
2022-12-11T08:54:18.134Z,64.40
2022-12-11T08:56:47.814Z,64.22
2022-12-11T08:59:17.379Z,64.67
2022-12-11T09:01:49.717Z,64.73
2022-12-11T09:04:19.506Z,64.48
2022-12-11T09:06:49.350Z,64.20
2022-12-11T09:09:18.990Z,63.87
2022-12-11T09:11:49.739Z,63.76
2022-12-11T09:14:19.291Z,63.57
2022-12-11T09:16:51.460Z,63.34
2022-12-11T09:19:20.998Z,63.05
2022-12-11T09:21:52.053Z,63.52
2022-12-11T09:24:21.355Z,63.24
2022-12-11T09:26:50.962Z,63.19
2022-12-11T09:29:20.522Z,63.00
2022-12-11T09:31:52.732Z,62.79
2022-12-11T09:34:28.696Z,62.87
2022-12-11T09:36:59.574Z,63.87
2022-12-11T09:39:29.180Z,65.52
2022-12-11T09:42:00.903Z,65.03
2022-12-11T09:44:35.681Z,64.02
2022-12-11T09:47:12.409Z,63.47
2022-12-11T09:49:43.039Z,63.75
2022-12-11T09:52:15.576Z,63.94
2022-12-11T09:54:50.858Z,64.29
2022-12-11T09:57:35.194Z,64.33
2022-12-11T10:00:22.111Z,63.27
2022-12-11T10:03:28.531Z,62.91
2022-12-11T10:06:04.433Z,62.23
2022-12-11T10:08:36.263Z,61.81
2022-12-11T10:11:08.583Z,61.38
2022-12-11T10:13:40.317Z,61.28
2022-12-11T10:16:14.914Z,61.34
2022-12-11T10:18:47.276Z,61.35
2022-12-11T10:21:16.798Z,61.50
2022-12-11T10:23:47.141Z,63.00
2022-12-11T10:26:19.245Z,64.30
2022-12-11T10:28:48.858Z,64.94
2022-12-11T10:31:20.157Z,65.79
2022-12-11T10:33:58.716Z,66.55
2022-12-11T10:36:30.763Z,66.87
2022-12-11T10:39:00.413Z,66.66
2022-12-11T10:41:36.869Z,66.90
2022-12-11T10:44:19.147Z,67.25
2022-12-11T10:46:48.776Z,67.56
2022-12-11T10:49:28.026Z,67.12
2022-12-11T10:51:57.532Z,67.34
2022-12-11T10:54:34.861Z,67.08
2022-12-11T10:57:04.884Z,66.36
2022-12-11T10:59:37.477Z,65.98
2022-12-11T11:02:07.364Z,65.85
2022-12-11T11:04:40.761Z,65.70
2022-12-11T11:07:15.408Z,66.16
2022-12-11T11:09:44.911Z,66.26
2022-12-11T11:12:21.952Z,66.13
2022-12-11T11:15:01.790Z,66.31
2022-12-11T11:17:34.959Z,65.31
2022-12-11T11:20:16.310Z,64.63
2022-12-11T11:22:47.599Z,65.52
2022-12-11T11:25:22.277Z,65.81
2022-12-11T11:27:53.313Z,65.71
2022-12-11T11:30:23.834Z,65.68
2022-12-11T11:32:54.422Z,67.10
2022-12-11T11:35:28.221Z,66.97
2022-12-11T11:38:01.434Z,67.17
2022-12-11T11:40:32.571Z,65.87
2022-12-11T11:43:07.725Z,64.51
2022-12-11T11:45:40.666Z,64.64
2022-12-11T11:48:15.980Z,65.68
2022-12-11T11:50:50.608Z,67.99
2022-12-11T11:53:22.083Z,66.37
2022-12-11T11:55:55.752Z,66.55
2022-12-11T11:58:27.718Z,67.47
2022-12-11T12:00:57.555Z,67.96
2022-12-11T12:03:27.455Z,68.04
2022-12-11T12:06:03.842Z,67.43
2022-12-11T12:08:41.482Z,68.28
2022-12-11T12:11:14.496Z,69.69
2022-12-11T12:13:50.130Z,69.64
2022-12-11T12:16:51.657Z,68.34
2022-12-11T12:19:21.101Z,68.24
2022-12-11T12:21:54.886Z,68.10
2022-12-11T12:24:34.743Z,68.56
2022-12-11T12:27:51.059Z,69.30
2022-12-11T12:30:16.150Z,67.51
2022-12-11T12:32:53.537Z,66.40
2022-12-11T12:35:33.298Z,65.52
2022-12-11T12:38:09.493Z,64.59
2022-12-11T12:40:41.503Z,63.78
2022-12-11T12:43:33.632Z,64.90
2022-12-11T12:46:07.591Z,66.16
2022-12-11T12:48:37.114Z,67.04
2022-12-11T12:51:06.802Z,67.83
2022-12-11T12:53:38.960Z,68.41
2022-12-11T12:56:09.246Z,66.50
2022-12-11T12:58:44.862Z,67.22
2022-12-11T13:01:19.322Z,66.37
2022-12-11T13:03:53.861Z,67.62
2022-12-11T13:06:34.536Z,67.35
2022-12-11T13:09:18.532Z,67.05
2022-12-11T13:11:50.157Z,67.10
2022-12-11T13:14:31.981Z,67.57
2022-12-11T13:17:09.293Z,67.43
2022-12-11T13:19:42.509Z,67.90
2022-12-11T13:22:24.388Z,67.76
2022-12-11T13:25:04.842Z,66.99
2022-12-11T13:27:40.045Z,66.16
2022-12-11T13:30:24.467Z,65.85
2022-12-11T13:33:01.548Z,65.52
2022-12-11T13:35:31.266Z,65.20
2022-12-11T13:38:04.273Z,64.94
2022-12-11T13:40:41.212Z,65.13
2022-12-11T13:43:17.848Z,65.49
2022-12-11T13:45:49.492Z,65.32
2022-12-11T13:48:22.590Z,65.86
2022-12-11T13:50:52.565Z,65.97
2022-12-11T13:53:22.221Z,65.80
2022-12-11T13:56:01.776Z,65.72
2022-12-11T13:58:31.792Z,64.94
2022-12-11T14:01:11.155Z,65.54
2022-12-11T14:03:41.791Z,65.17
2022-12-11T14:06:18.224Z,64.59
2022-12-11T14:08:48.841Z,63.56
2022-12-11T14:11:24.339Z,63.89
2022-12-11T14:13:54.139Z,64.01
2022-12-11T14:16:24.788Z,64.41
2022-12-11T14:18:54.429Z,64.70
2022-12-11T14:21:25.019Z,64.32
2022-12-11T14:23:54.864Z,64.78
2022-12-11T14:26:27.821Z,64.77
2022-12-11T14:28:57.652Z,65.58
2022-12-11T14:31:29.970Z,65.48
2022-12-11T14:34:01.728Z,64.92
2022-12-11T14:36:31.226Z,64.96
2022-12-11T14:39:03.696Z,64.80
2022-12-11T14:41:38.129Z,64.70
2022-12-11T14:44:08.072Z,64.41
2022-12-11T14:46:39.456Z,64.26
2022-12-11T14:49:10.331Z,64.44
2022-12-11T14:51:41.821Z,64.40
2022-12-11T14:54:20.081Z,64.75
2022-12-11T14:56:52.434Z,65.68
2022-12-11T14:59:28.469Z,66.00
2022-12-11T15:02:02.119Z,66.11
2022-12-11T15:04:33.025Z,65.58
2022-12-11T15:07:02.604Z,66.10
2022-12-11T15:09:32.931Z,67.17
2022-12-11T15:12:19.523Z,66.92
2022-12-11T15:14:51.524Z,66.48
2022-12-11T15:17:21.302Z,66.30
2022-12-11T15:19:51.685Z,66.31
2022-12-11T15:22:21.263Z,65.68
2022-12-11T15:24:53.028Z,66.51
2022-12-11T15:27:37.025Z,67.00
2022-12-11T15:30:18.490Z,67.44
2022-12-11T15:32:48.126Z,67.78
2022-12-11T15:35:25.155Z,67.88
2022-12-11T15:37:55.005Z,68.06
2022-12-11T15:40:24.644Z,68.46
2022-12-11T15:42:57.479Z,68.58
2022-12-11T15:45:28.518Z,67.60
2022-12-11T15:47:59.471Z,67.16
2022-12-11T15:50:31.852Z,67.33
2022-12-11T15:53:01.330Z,67.30
2022-12-11T15:55:34.887Z,67.04
2022-12-11T15:58:08.853Z,66.28
2022-12-11T16:00:38.373Z,66.49
2022-12-11T16:03:07.858Z,66.54
2022-12-11T16:05:37.326Z,66.39
2022-12-11T16:08:07.753Z,66.24
2022-12-11T16:10:37.635Z,66.42
2022-12-11T16:13:09.710Z,66.52
2022-12-11T16:15:39.910Z,66.95
2022-12-11T16:18:11.180Z,67.03
2022-12-11T16:20:40.960Z,66.61
2022-12-11T16:23:10.696Z,66.44
2022-12-11T16:25:40.886Z,66.98
2022-12-11T16:28:13.490Z,67.19
2022-12-11T16:30:43.558Z,66.32
2022-12-11T16:33:13.746Z,66.43
2022-12-11T16:35:43.375Z,66.41
2022-12-11T16:38:13.589Z,66.59
2022-12-11T16:40:43.300Z,66.16
2022-12-11T16:43:15.339Z,66.01
2022-12-11T16:45:44.796Z,65.81
2022-12-11T16:48:14.226Z,65.64
2022-12-11T16:50:43.680Z,65.86
2022-12-11T16:53:14.634Z,65.60
2022-12-11T16:55:44.310Z,65.39
2022-12-11T16:58:20.086Z,65.75
2022-12-11T17:00:49.614Z,65.69
2022-12-11T17:03:19.149Z,65.65
2022-12-11T17:05:48.628Z,65.25
2022-12-11T17:08:18.127Z,65.42
2022-12-11T17:10:47.633Z,65.54
2022-12-11T17:13:19.662Z,65.24
2022-12-11T17:15:49.135Z,65.12
2022-12-11T17:18:18.599Z,65.12
2022-12-11T17:20:48.067Z,65.16
2022-12-11T17:23:17.544Z,65.51
2022-12-11T17:25:47.447Z,65.32
2022-12-11T17:28:19.495Z,65.32
2022-12-11T17:30:50.160Z,65.34
2022-12-11T17:33:19.705Z,65.24
2022-12-11T17:35:49.250Z,65.21
2022-12-11T17:38:18.709Z,65.61
2022-12-11T17:40:48.588Z,65.77
2022-12-11T17:43:20.729Z,65.43
2022-12-11T17:45:52.460Z,65.53
2022-12-11T17:48:22.500Z,65.82
2022-12-11T17:50:52.830Z,65.87
2022-12-11T17:53:22.986Z,65.53
2022-12-11T17:55:52.826Z,65.53
2022-12-11T17:58:25.344Z,65.86
2022-12-11T18:00:55.757Z,65.55
2022-12-11T18:03:25.552Z,65.94
2022-12-11T18:05:56.369Z,66.11
2022-12-11T18:08:30.002Z,66.32
2022-12-11T18:10:59.751Z,66.12
2022-12-11T18:13:31.796Z,66.14
2022-12-11T18:16:04.782Z,66.32
2022-12-11T18:18:34.341Z,66.43
2022-12-11T18:21:04.005Z,66.11
2022-12-11T18:23:33.518Z,65.81
2022-12-11T18:26:03.005Z,65.68
2022-12-11T18:28:35.090Z,65.86
2022-12-11T18:31:04.717Z,66.16
2022-12-11T18:33:34.369Z,66.08
2022-12-11T18:36:04.099Z,66.15
2022-12-11T18:38:33.623Z,66.34
2022-12-11T18:41:04.943Z,65.77
2022-12-11T18:43:37.086Z,66.43
2022-12-11T18:46:08.423Z,65.97
2022-12-11T18:48:38.023Z,66.74
2022-12-11T18:51:09.384Z,66.47
2022-12-11T18:53:39.227Z,66.17
2022-12-11T18:56:09.810Z,66.01
2022-12-11T18:58:41.855Z,65.94
2022-12-11T19:01:11.906Z,65.90
2022-12-11T19:03:41.446Z,66.40
2022-12-11T19:06:11.970Z,66.58
2022-12-11T19:08:41.473Z,66.61
2022-12-11T19:11:11.057Z,66.56
2022-12-11T19:13:43.921Z,66.91
2022-12-11T19:16:18.447Z,66.98
2022-12-11T19:18:48.048Z,67.42
2022-12-11T19:21:18.122Z,67.45
2022-12-11T19:23:47.861Z,67.26
2022-12-11T19:26:18.468Z,67.34
2022-12-11T19:28:51.239Z,67.19
2022-12-11T19:31:21.627Z,67.51
2022-12-11T19:33:51.184Z,66.83
2022-12-11T19:36:21.678Z,66.54
2022-12-11T19:38:51.223Z,66.60
2022-12-11T19:41:21.954Z,66.56
2022-12-11T19:43:54.394Z,66.21
2022-12-11T19:46:24.042Z,66.79
2022-12-11T19:48:54.152Z,66.69
2022-12-11T19:51:24.881Z,67.03
2022-12-11T19:53:54.367Z,66.87
2022-12-11T19:56:24.019Z,66.66
2022-12-11T19:58:56.059Z,66.41
2022-12-11T20:01:28.849Z,66.50
2022-12-11T20:03:59.595Z,66.42
2022-12-11T20:06:29.996Z,66.22
2022-12-11T20:08:59.611Z,66.32
2022-12-11T20:11:29.118Z,66.43
2022-12-11T20:14:01.283Z,66.33
2022-12-11T20:17:01.680Z,66.56
2022-12-11T20:19:20.288Z,66.39
2022-12-11T20:21:49.752Z,66.21
2022-12-11T20:24:19.226Z,66.05
2022-12-11T20:26:49.203Z,66.36
2022-12-11T20:29:21.262Z,66.20
2022-12-11T20:31:52.640Z,65.83
2022-12-11T20:34:23.079Z,65.97
2022-12-11T20:36:54.607Z,65.54
2022-12-11T20:39:24.117Z,65.94
2022-12-11T20:41:53.579Z,65.51
2022-12-11T20:44:25.923Z,65.61
2022-12-11T20:46:55.395Z,65.78
2022-12-11T20:49:24.892Z,65.81
2022-12-11T20:51:54.387Z,66.12
2022-12-11T20:54:23.873Z,66.30
2022-12-11T20:56:53.347Z,65.99
2022-12-11T20:59:26.107Z,66.21
2022-12-11T21:01:55.963Z,66.18
2022-12-11T21:04:25.696Z,65.86
2022-12-11T21:06:55.438Z,65.62
2022-12-11T21:09:26.535Z,66.49
2022-12-11T21:11:55.820Z,65.70
2022-12-11T21:14:27.860Z,66.57
2022-12-11T21:16:57.380Z,66.12
2022-12-11T21:19:26.900Z,65.86
2022-12-11T21:21:56.387Z,66.00
2022-12-11T21:24:27.382Z,65.63
2022-12-11T21:26:57.685Z,65.47
2022-12-11T21:29:30.044Z,65.37
2022-12-11T21:31:59.635Z,65.11
2022-12-11T21:34:29.717Z,65.39
2022-12-11T21:36:59.322Z,65.24
2022-12-11T21:39:29.316Z,65.23
2022-12-11T21:41:58.803Z,64.98
2022-12-11T21:47:20.306Z,65.21
2022-12-11T21:49:49.801Z,65.22
2022-12-11T21:52:19.666Z,65.06
2022-12-11T21:54:49.310Z,65.34
2022-12-11T21:57:22.822Z,65.16
2022-12-11T21:59:58.068Z,65.48
2022-12-11T22:02:27.643Z,65.15
2022-12-11T22:04:57.145Z,65.04
2022-12-11T22:07:27.639Z,64.75
2022-12-11T22:09:58.003Z,64.90
2022-12-11T22:12:29.151Z,64.88
2022-12-11T22:15:01.195Z,64.67
2022-12-11T22:17:31.656Z,64.66
2022-12-11T22:20:01.339Z,64.62
2022-12-11T22:22:30.791Z,65.38
2022-12-11T22:25:00.301Z,65.23
2022-12-11T22:27:29.768Z,64.82
2022-12-11T22:30:01.788Z,64.70
2022-12-11T22:32:31.268Z,64.77
2022-12-11T22:35:00.875Z,65.24
2022-12-11T22:37:30.347Z,65.04
2022-12-11T22:39:59.782Z,65.56
2022-12-11T22:42:29.271Z,65.28
2022-12-11T22:45:01.300Z,65.39
2022-12-11T22:47:30.798Z,65.77
2022-12-11T22:50:00.224Z,65.79
2022-12-11T22:52:29.894Z,65.28
2022-12-11T22:54:59.361Z,65.27
2022-12-11T22:57:28.855Z,64.84
2022-12-11T23:00:00.911Z,64.76
2022-12-11T23:02:30.380Z,64.95
2022-12-11T23:04:59.843Z,64.70
2022-12-11T23:07:29.757Z,64.89
2022-12-11T23:09:59.262Z,65.14
2022-12-11T23:12:28.737Z,65.30
2022-12-11T23:15:00.761Z,65.19
2022-12-11T23:17:30.279Z,64.82
2022-12-11T23:20:00.473Z,64.94
2022-12-11T23:22:29.973Z,65.10
2022-12-11T23:24:59.432Z,65.14
2022-12-11T23:27:28.917Z,65.96
2022-12-11T23:30:00.932Z,65.60
2022-12-11T23:32:30.370Z,65.76
2022-12-11T23:34:59.832Z,65.65
2022-12-11T23:37:29.315Z,66.17
2022-12-11T23:39:59.004Z,66.07
2022-12-11T23:42:28.521Z,65.85
2022-12-11T23:44:58.067Z,65.68
2022-12-11T23:47:30.134Z,65.64
2022-12-11T23:49:59.587Z,65.56
2022-12-11T23:52:29.193Z,65.78
2022-12-11T23:54:58.691Z,65.51
2022-12-11T23:57:28.160Z,66.07
2022-12-11T23:59:57.603Z,66.11
